createdAt,value
2023-03-21T00:00:31.983Z,83.99
2023-03-21T00:03:02.234Z,83.75
2023-03-21T00:05:30.076Z,84.03
2023-03-21T00:07:57.406Z,83.63
2023-03-21T00:10:39.088Z,84.13
2023-03-21T00:13:07.914Z,83.36
2023-03-21T00:15:48.441Z,83.77
2023-03-21T00:18:23.863Z,86.72
2023-03-21T00:21:33.650Z,84.32
2023-03-21T00:23:49.690Z,85.13
2023-03-21T00:26:17.031Z,85.56
2023-03-21T00:28:47.860Z,88.83
2023-03-21T00:31:23.258Z,85.35
2023-03-21T00:33:50.599Z,85.45
2023-03-21T00:36:20.570Z,85.55
2023-03-21T00:38:48.513Z,86.43
2023-03-21T00:41:38.959Z,85.45
2023-03-21T00:44:09.520Z,85.12
2023-03-21T00:46:45.472Z,85.95
2023-03-21T00:49:17.326Z,88.23
2023-03-21T00:51:44.695Z,86.38
2023-03-21T00:54:13.155Z,85.48
2023-03-21T00:56:40.901Z,85.62
2023-03-21T00:59:10.908Z,85.79
2023-03-21T01:01:39.703Z,86.42
2023-03-21T01:04:13.385Z,86.33
2023-03-21T01:06:43.141Z,85.78
2023-03-21T01:09:16.730Z,85.81
2023-03-21T01:11:50.530Z,86.09
2023-03-21T01:14:23.974Z,86.44
2023-03-21T01:16:52.805Z,86.67
2023-03-21T01:19:29.158Z,87.13
2023-03-21T01:21:59.721Z,86.16
2023-03-21T01:24:27.375Z,86.97
2023-03-21T01:27:13.903Z,86.92
2023-03-21T01:30:00.448Z,87.48
2023-03-21T01:32:47.402Z,87.61
2023-03-21T01:35:47.992Z,88.23
2023-03-21T01:38:36.798Z,88.29
2023-03-21T01:41:41.976Z,87.28
2023-03-21T01:44:16.347Z,87.59
2023-03-21T01:47:00.412Z,87.70
2023-03-21T01:49:35.911Z,88.40
2023-03-21T01:52:15.201Z,88.79
2023-03-21T01:54:47.902Z,89.13
2023-03-21T01:57:30.016Z,88.31
2023-03-21T02:00:03.220Z,87.95
2023-03-21T02:02:31.409Z,88.83
2023-03-21T02:05:02.891Z,89.80
2023-03-21T02:07:36.711Z,89.46
2023-03-21T02:10:06.963Z,88.91
2023-03-21T02:12:35.082Z,87.90
2023-03-21T02:15:02.509Z,89.32
2023-03-21T02:17:32.762Z,88.51
2023-03-21T02:20:15.899Z,90.48
2023-03-21T02:22:52.312Z,89.38
2023-03-21T02:25:34.449Z,89.66
2023-03-21T02:28:10.712Z,89.72
2023-03-21T02:31:02.252Z,90.21
2023-03-21T02:33:37.253Z,90.21
2023-03-21T02:36:14.231Z,90.35
2023-03-21T02:39:14.546Z,90.55
2023-03-21T02:42:07.592Z,91.07
2023-03-21T02:44:47.110Z,90.92
2023-03-21T02:47:23.854Z,90.24
2023-03-21T02:50:15.332Z,90.85
2023-03-21T02:52:44.407Z,89.68
2023-03-21T02:55:15.995Z,90.06
2023-03-21T02:57:45.399Z,90.33
2023-03-21T03:00:20.027Z,91.31
2023-03-21T03:03:02.599Z,91.28
2023-03-21T03:05:37.189Z,88.62
2023-03-21T03:08:53.110Z,89.67
2023-03-21T03:11:33.247Z,89.68
2023-03-21T03:14:35.753Z,90.00
2023-03-21T03:16:59.749Z,90.22
2023-03-21T03:19:32.770Z,90.34
2023-03-21T03:22:10.827Z,90.54
2023-03-21T03:24:45.729Z,90.23
2023-03-21T03:27:23.481Z,91.12
2023-03-21T03:29:52.369Z,90.17
2023-03-21T03:32:27.562Z,90.27
2023-03-21T03:34:56.021Z,90.15
2023-03-21T03:37:32.852Z,87.56
2023-03-21T03:40:06.609Z,86.92
2023-03-21T03:42:37.033Z,88.29
2023-03-21T03:45:06.461Z,89.18
2023-03-21T03:48:02.410Z,89.89
2023-03-21T03:50:42.195Z,90.29
2023-03-21T03:53:23.802Z,90.45
2023-03-21T03:55:52.165Z,90.31
2023-03-21T03:58:23.756Z,90.82
2023-03-21T04:00:54.051Z,92.01
2023-03-21T04:03:25.099Z,92.67
2023-03-21T04:05:52.602Z,92.73
2023-03-21T04:08:19.913Z,92.75
2023-03-21T04:10:47.810Z,94.17
2023-03-21T04:13:18.127Z,91.54
2023-03-21T04:15:46.083Z,91.29
2023-03-21T04:18:14.191Z,90.75
2023-03-21T04:20:41.896Z,93.67
2023-03-21T04:23:09.315Z,90.96
2023-03-21T04:25:42.403Z,91.18
2023-03-21T04:28:15.111Z,91.77
2023-03-21T04:30:54.950Z,93.44
2023-03-21T04:33:27.926Z,92.74
2023-03-21T04:35:55.500Z,92.32
2023-03-21T04:38:25.116Z,79.08
2023-03-21T04:40:52.751Z,72.77
2023-03-21T04:43:20.493Z,73.62
2023-03-21T04:45:47.928Z,75.82
2023-03-21T04:48:15.844Z,75.84
2023-03-21T04:50:44.165Z,77.30
2023-03-21T04:53:12.789Z,78.40
2023-03-21T04:55:40.853Z,80.66
2023-03-21T04:58:08.742Z,75.22
2023-03-21T05:00:36.594Z,76.40
2023-03-21T05:03:06.553Z,80.82
2023-03-21T05:05:37.444Z,84.80
2023-03-21T05:08:06.444Z,87.16
2023-03-21T05:10:34.408Z,86.38
2023-03-21T05:13:02.344Z,81.34
2023-03-21T05:15:30.367Z,80.55
2023-03-21T05:17:58.263Z,78.42
2023-03-21T05:20:26.386Z,79.57
2023-03-21T05:22:53.796Z,87.35
2023-03-21T05:25:21.194Z,85.12
2023-03-21T05:27:48.754Z,86.42
2023-03-21T05:30:17.987Z,85.26
2023-03-21T05:32:46.108Z,85.34
2023-03-21T05:35:13.652Z,90.12
2023-03-21T05:37:40.881Z,87.37
2023-03-21T05:40:08.902Z,85.14
2023-03-21T05:42:36.220Z,87.80
2023-03-21T05:45:04.106Z,86.59
2023-03-21T05:47:31.588Z,91.49
2023-03-21T05:49:58.965Z,85.61
2023-03-21T05:52:30.066Z,85.50
2023-03-21T05:54:57.524Z,85.07
2023-03-21T05:57:25.339Z,84.92
2023-03-21T05:59:53.276Z,85.16
2023-03-21T06:02:20.877Z,84.82
2023-03-21T06:05:00.842Z,85.25
2023-03-21T06:07:31.378Z,85.50
2023-03-21T06:09:59.594Z,90.35
2023-03-21T06:12:30.211Z,89.73
2023-03-21T06:15:03.383Z,86.84
2023-03-21T06:17:31.851Z,86.26
2023-03-21T06:19:59.275Z,90.49
2023-03-21T06:22:28.309Z,86.29
2023-03-21T06:24:55.817Z,85.33
2023-03-21T06:27:26.262Z,85.65
2023-03-21T06:29:53.963Z,85.17
2023-03-21T06:32:22.042Z,84.27
2023-03-21T06:34:56.339Z,81.58
2023-03-21T06:37:27.149Z,80.18
2023-03-21T06:39:57.727Z,80.40
2023-03-21T06:42:25.071Z,81.03
2023-03-21T06:44:56.528Z,78.92
2023-03-21T06:47:23.960Z,78.12
2023-03-21T06:49:51.906Z,76.41
2023-03-21T06:52:21.847Z,77.27
2023-03-21T06:54:55.557Z,70.67
2023-03-21T06:57:23.028Z,67.94
2023-03-21T06:59:50.357Z,67.39
2023-03-21T07:02:17.996Z,70.55
2023-03-21T07:04:47.827Z,66.49
2023-03-21T07:07:15.152Z,68.64
2023-03-21T07:09:42.795Z,69.43
2023-03-21T07:12:10.277Z,71.85
2023-03-21T07:14:37.671Z,71.36
2023-03-21T07:17:05.044Z,72.39
2023-03-21T07:19:35.200Z,71.56
2023-03-21T07:22:02.754Z,70.96
2023-03-21T07:24:30.515Z,71.38
2023-03-21T07:26:58.032Z,73.00
2023-03-21T07:29:25.848Z,72.98
2023-03-21T07:31:53.337Z,74.19
2023-03-21T07:34:21.414Z,78.77
2023-03-21T07:36:55.094Z,72.94
2023-03-21T07:39:27.240Z,72.68
2023-03-21T07:42:03.563Z,71.19
2023-03-21T07:44:31.084Z,70.87
2023-03-21T07:47:01.221Z,70.74
2023-03-21T07:49:31.877Z,69.94
2023-03-21T07:52:00.105Z,69.72
2023-03-21T07:54:28.405Z,69.12
2023-03-21T07:56:56.638Z,68.64
2023-03-21T07:59:24.672Z,69.75
2023-03-21T08:01:52.272Z,67.79
2023-03-21T08:04:19.688Z,66.52
2023-03-21T08:06:52.140Z,66.31
2023-03-21T08:09:25.558Z,66.42
2023-03-21T08:11:55.988Z,66.53
2023-03-21T08:14:25.912Z,65.93
2023-03-21T08:16:56.837Z,65.31
2023-03-21T08:19:24.314Z,64.18
2023-03-21T08:21:58.640Z,64.67
2023-03-21T08:24:26.372Z,65.02
2023-03-21T08:26:56.640Z,63.51
2023-03-21T08:29:24.473Z,63.44
2023-03-21T08:31:55.653Z,63.60
2023-03-21T08:34:23.139Z,64.01
2023-03-21T08:36:53.705Z,65.07
2023-03-21T08:39:26.642Z,64.98
2023-03-21T08:41:54.079Z,67.61
2023-03-21T08:44:27.424Z,67.02
2023-03-21T08:46:58.065Z,66.79
2023-03-21T08:49:25.571Z,66.80
2023-03-21T08:51:58.550Z,65.81
2023-03-21T08:54:25.913Z,65.24
2023-03-21T08:56:53.443Z,66.83
2023-03-21T08:59:27.056Z,66.28
2023-03-21T09:01:57.220Z,63.93
2023-03-21T09:04:28.422Z,66.43
2023-03-21T09:07:05.469Z,65.89
2023-03-21T09:09:37.038Z,62.98
2023-03-21T09:12:04.540Z,63.06
2023-03-21T09:14:32.294Z,62.35
2023-03-21T09:17:05.943Z,61.34
2023-03-21T09:19:33.617Z,61.44
2023-03-21T09:22:03.770Z,61.72
2023-03-21T09:24:34.579Z,61.70
2023-03-21T09:27:05.326Z,60.86
2023-03-21T09:29:39.187Z,61.54
2023-03-21T09:32:06.885Z,61.00
2023-03-21T09:34:37.528Z,60.18
2023-03-21T09:37:05.742Z,59.83
2023-03-21T09:39:33.135Z,56.58
2023-03-21T09:42:07.689Z,54.84
2023-03-21T09:45:00.642Z,57.48
2023-03-21T09:47:37.107Z,55.78
2023-03-21T09:50:32.430Z,57.77
2023-03-21T09:53:20.567Z,56.44
2023-03-21T09:55:48.119Z,59.12
2023-03-21T09:58:34.407Z,56.87
2023-03-21T10:01:17.930Z,55.71
2023-03-21T10:03:45.781Z,54.35
2023-03-21T10:06:17.426Z,53.36
2023-03-21T10:08:48.794Z,51.28
2023-03-21T10:11:24.296Z,51.07
2023-03-21T10:13:59.753Z,50.64
2023-03-21T10:16:34.625Z,50.50
2023-03-21T10:19:07.522Z,51.28
2023-03-21T10:21:59.287Z,52.00
2023-03-21T10:24:30.003Z,48.64
2023-03-21T10:26:57.718Z,48.18
2023-03-21T10:29:39.305Z,49.08
2023-03-21T10:32:10.385Z,51.47
2023-03-21T10:34:41.891Z,52.95
2023-03-21T10:37:13.867Z,52.76
2023-03-21T10:39:47.898Z,51.92
2023-03-21T10:42:20.134Z,52.97
2023-03-21T10:44:50.169Z,52.02
2023-03-21T10:47:28.644Z,51.58
2023-03-21T10:50:10.622Z,52.19
2023-03-21T10:52:45.111Z,54.06
2023-03-21T10:55:21.447Z,54.31
2023-03-21T10:57:52.905Z,55.13
2023-03-21T11:00:24.703Z,55.83
2023-03-21T11:02:53.602Z,53.97
2023-03-21T11:05:35.838Z,56.54
2023-03-21T11:08:13.953Z,56.32
2023-03-21T11:11:05.087Z,56.60
2023-03-21T11:13:40.299Z,56.75
2023-03-21T11:16:23.379Z,58.20
2023-03-21T11:18:56.715Z,57.69
2023-03-21T11:21:25.358Z,57.78
2023-03-21T11:23:57.316Z,57.74
2023-03-21T11:26:31.248Z,58.24
2023-03-21T11:28:59.102Z,56.41
2023-03-21T11:31:44.245Z,56.52
2023-03-21T11:34:26.014Z,56.47
2023-03-21T11:36:58.753Z,57.74
2023-03-21T11:39:38.081Z,56.41
2023-03-21T11:42:25.203Z,56.41
2023-03-21T11:45:13.539Z,56.33
2023-03-21T11:47:41.241Z,56.16
2023-03-21T11:50:18.092Z,56.10
2023-03-21T11:52:48.403Z,56.19
2023-03-21T11:55:47.227Z,55.73
2023-03-21T11:58:35.752Z,56.25
2023-03-21T12:01:27.177Z,55.44
2023-03-21T12:04:25.004Z,55.98
2023-03-21T12:07:48.483Z,56.35
2023-03-21T12:10:31.314Z,56.02
2023-03-21T12:13:10.798Z,56.08
2023-03-21T12:16:07.889Z,56.23
2023-03-21T12:18:48.555Z,57.08
2023-03-21T12:21:18.899Z,57.46
2023-03-21T12:23:46.297Z,56.12
2023-03-21T12:26:29.440Z,56.39
2023-03-21T12:29:22.896Z,56.18
2023-03-21T12:32:08.510Z,56.15
2023-03-21T12:35:05.237Z,54.18
2023-03-21T12:38:00.260Z,54.90
2023-03-21T12:40:50.821Z,55.67
2023-03-21T12:43:35.956Z,55.05
2023-03-21T12:46:09.037Z,55.75
2023-03-21T12:48:56.280Z,56.33
2023-03-21T12:51:29.555Z,57.34
2023-03-21T12:54:10.163Z,57.16
2023-03-21T12:56:43.315Z,57.38
2023-03-21T12:59:23.350Z,57.02
2023-03-21T13:01:53.432Z,56.95
2023-03-21T13:04:36.776Z,56.14
2023-03-21T13:07:07.813Z,55.97
2023-03-21T13:09:40.292Z,57.36
2023-03-21T13:12:13.888Z,55.79
2023-03-21T13:14:59.580Z,56.13
2023-03-21T13:17:38.563Z,55.66
2023-03-21T13:20:22.494Z,55.98
2023-03-21T13:22:49.808Z,56.69
2023-03-21T13:25:23.312Z,55.74
2023-03-21T13:27:56.027Z,56.26
2023-03-21T13:30:29.124Z,56.63
2023-03-21T13:33:11.614Z,57.88
2023-03-21T13:35:41.309Z,56.00
2023-03-21T13:38:26.439Z,56.24
2023-03-21T13:41:00.309Z,57.58
2023-03-21T13:43:54.185Z,57.77
2023-03-21T13:46:24.732Z,57.69
2023-03-21T13:48:59.205Z,58.14
2023-03-21T13:51:56.115Z,58.77
2023-03-21T13:54:38.498Z,59.15
2023-03-21T13:57:06.998Z,59.11
2023-03-21T13:59:44.985Z,58.92
2023-03-21T14:02:12.278Z,58.24
2023-03-21T14:04:53.389Z,59.14
2023-03-21T14:07:27.192Z,60.26
2023-03-21T14:10:28.339Z,61.51
2023-03-21T14:12:56.744Z,63.90
2023-03-21T14:15:27.056Z,66.89
2023-03-21T14:18:00.384Z,65.26
2023-03-21T14:20:33.914Z,69.48
2023-03-21T14:23:06.125Z,67.95
2023-03-21T14:25:46.646Z,69.32
2023-03-21T14:28:24.034Z,68.08
2023-03-21T14:30:55.487Z,74.81
2023-03-21T14:33:31.889Z,69.26
2023-03-21T14:36:23.260Z,68.72
2023-03-21T14:38:55.901Z,67.96
2023-03-21T14:41:29.298Z,68.93
2023-03-21T14:44:14.748Z,69.81
2023-03-21T14:46:44.855Z,68.05
2023-03-21T14:49:32.124Z,68.11
2023-03-21T14:52:02.222Z,68.72
2023-03-21T14:54:31.164Z,68.98
2023-03-21T14:57:02.402Z,69.80
2023-03-21T14:59:32.131Z,68.84
2023-03-21T15:02:04.776Z,68.44
2023-03-21T15:04:32.869Z,67.02
2023-03-21T15:07:02.875Z,68.91
2023-03-21T15:09:33.233Z,69.12
2023-03-21T15:12:01.784Z,70.05
2023-03-21T15:14:34.655Z,69.39
2023-03-21T15:17:04.335Z,71.37
2023-03-21T15:19:35.501Z,68.35
2023-03-21T15:22:29.265Z,70.79
2023-03-21T15:25:02.365Z,70.32
2023-03-21T15:27:33.200Z,71.46
2023-03-21T15:30:00.615Z,73.17
2023-03-21T15:32:28.773Z,71.63
2023-03-21T15:35:06.282Z,71.67
2023-03-21T15:37:36.632Z,72.83
2023-03-21T15:40:28.328Z,72.70
2023-03-21T15:43:20.867Z,75.02
2023-03-21T15:45:56.026Z,76.02
2023-03-21T15:48:28.684Z,71.99
2023-03-21T15:50:56.339Z,73.96
2023-03-21T15:53:24.986Z,71.41
2023-03-21T15:55:57.653Z,71.40
2023-03-21T15:58:27.515Z,70.88
2023-03-21T16:00:57.208Z,70.74
2023-03-21T16:03:29.265Z,68.86
2023-03-21T16:06:12.184Z,71.06
2023-03-21T16:09:06.556Z,71.20
2023-03-21T16:11:40.048Z,70.84
2023-03-21T16:14:07.686Z,72.47
2023-03-21T16:16:35.487Z,72.80
2023-03-21T16:19:03.524Z,72.97
2023-03-21T16:21:32.051Z,73.29
2023-03-21T16:23:59.736Z,73.13
2023-03-21T16:26:37.281Z,71.19
2023-03-21T16:29:06.069Z,67.06
2023-03-21T16:31:35.877Z,70.15
2023-03-21T16:34:04.075Z,71.72
2023-03-21T16:36:40.146Z,72.35
2023-03-21T16:39:20.972Z,71.93
2023-03-21T16:41:49.334Z,70.95
2023-03-21T16:44:17.015Z,69.59
2023-03-21T16:46:45.072Z,70.59
2023-03-21T16:49:22.267Z,72.14
2023-03-21T16:51:53.224Z,74.39
2023-03-21T16:54:21.109Z,73.13
2023-03-21T16:56:58.580Z,74.46
2023-03-21T16:59:26.404Z,73.95
2023-03-21T17:01:53.708Z,74.62
2023-03-21T17:04:21.018Z,74.71
2023-03-21T17:06:51.354Z,74.81
2023-03-21T17:09:24.760Z,75.76
2023-03-21T17:11:52.091Z,76.53
2023-03-21T17:14:19.530Z,78.14
2023-03-21T17:16:47.289Z,77.83
2023-03-21T17:19:19.920Z,77.30
2023-03-21T17:21:47.444Z,77.76
2023-03-21T17:24:15.335Z,81.41
2023-03-21T17:26:42.956Z,79.76
2023-03-21T17:29:15.713Z,80.78
2023-03-21T17:31:43.231Z,84.54
2023-03-21T17:34:10.560Z,84.75
2023-03-21T17:36:40.502Z,87.61
2023-03-21T17:39:14.398Z,90.91
2023-03-21T17:41:42.009Z,95.33
2023-03-21T17:44:09.613Z,95.55
2023-03-21T17:46:37.425Z,97.72
2023-03-21T17:49:05.784Z,100.00
2023-03-21T17:51:33.255Z,100.00
2023-03-21T17:54:00.680Z,100.00
2023-03-21T17:56:30.503Z,100.00
2023-03-21T17:59:01.446Z,100.00
2023-03-21T18:01:29.119Z,100.00
2023-03-21T18:03:57.742Z,100.00
2023-03-21T18:06:26.634Z,100.00
2023-03-21T18:08:54.803Z,100.00
2023-03-21T18:11:25.149Z,100.00
2023-03-21T18:14:01.258Z,100.00
2023-03-21T18:16:34.264Z,100.00
2023-03-21T18:19:02.010Z,100.00
2023-03-21T18:21:32.908Z,100.00
2023-03-21T18:24:00.461Z,100.00
2023-03-21T18:26:27.700Z,100.00
2023-03-21T18:29:53.523Z,100.00
2023-03-21T18:32:04.297Z,100.00
2023-03-21T18:34:37.526Z,100.00
2023-03-21T18:37:08.027Z,100.00
2023-03-21T18:39:36.388Z,100.00
2023-03-21T18:42:06.784Z,100.00
2023-03-21T18:44:35.232Z,100.00
2023-03-21T18:47:09.202Z,100.00
2023-03-21T18:52:35.023Z,100.00
2023-03-21T18:55:06.770Z,100.00
2023-03-21T18:57:43.318Z,100.00
2023-03-21T19:00:17.854Z,100.00
2023-03-21T19:03:02.943Z,100.00
2023-03-21T19:05:53.220Z,100.00
2023-03-21T19:08:33.872Z,100.00
2023-03-21T19:11:16.293Z,100.00
2023-03-21T19:13:53.017Z,100.00
2023-03-21T19:16:56.178Z,100.00
2023-03-21T19:19:39.395Z,100.00
2023-03-21T19:22:09.869Z,100.00
2023-03-21T19:25:02.167Z,100.00
2023-03-21T19:27:52.060Z,100.00
2023-03-21T19:30:32.071Z,100.00
2023-03-21T19:33:05.123Z,100.00
2023-03-21T19:36:06.166Z,100.00
2023-03-21T19:44:16.080Z,100.00
2023-03-21T19:46:51.101Z,100.00
2023-03-21T19:49:42.917Z,100.00
2023-03-21T19:52:21.791Z,100.00
2023-03-21T19:55:01.788Z,100.00
2023-03-21T19:57:39.297Z,100.00
2023-03-21T20:00:07.383Z,100.00
2023-03-21T20:02:49.587Z,100.00
2023-03-21T20:05:23.570Z,100.00
2023-03-21T20:08:02.236Z,100.00
2023-03-21T20:10:35.275Z,100.00
2023-03-21T20:13:08.437Z,100.00
2023-03-21T20:15:48.038Z,100.00
2023-03-21T20:18:16.092Z,100.00
2023-03-21T20:20:45.113Z,100.00
2023-03-21T20:23:19.608Z,100.00
2023-03-21T20:25:48.124Z,100.00
2023-03-21T20:28:29.117Z,100.00
2023-03-21T20:31:16.892Z,100.00
2023-03-21T20:33:59.245Z,100.00
2023-03-21T20:36:39.966Z,100.00
2023-03-21T20:39:14.031Z,100.00
2023-03-21T20:41:53.402Z,100.00
2023-03-21T20:47:38.916Z,100.00
2023-03-21T20:50:16.773Z,100.00
2023-03-21T20:53:06.356Z,100.00
2023-03-21T20:55:34.829Z,100.00
2023-03-21T20:58:12.910Z,100.00
2023-03-21T21:00:50.635Z,100.00
2023-03-21T21:03:17.837Z,100.00
2023-03-21T21:05:45.420Z,100.00
2023-03-21T21:08:12.768Z,100.00
2023-03-21T21:11:02.717Z,100.00
2023-03-21T21:13:29.463Z,100.00
2023-03-21T21:15:56.631Z,100.00
2023-03-21T21:18:26.445Z,100.00
2023-03-21T21:20:54.743Z,100.00
2023-03-21T21:23:25.712Z,100.00
2023-03-21T21:26:14.626Z,100.00
2023-03-21T21:28:44.862Z,100.00
2023-03-21T21:31:21.029Z,100.00
2023-03-21T21:34:20.162Z,100.00
2023-03-21T21:36:53.004Z,100.00
2023-03-21T21:39:30.135Z,100.00
2023-03-21T21:42:00.367Z,100.00
2023-03-21T21:44:34.964Z,100.00
2023-03-21T21:47:14.877Z,100.00
2023-03-21T21:49:49.388Z,100.00
2023-03-21T21:52:16.662Z,100.00
2023-03-21T21:54:43.773Z,100.00
2023-03-21T21:57:11.063Z,100.00
2023-03-21T21:59:38.199Z,100.00
2023-03-21T22:02:11.135Z,100.00
2023-03-21T22:04:38.243Z,100.00
2023-03-21T22:07:05.733Z,100.00
2023-03-21T22:09:38.290Z,100.00
2023-03-21T22:12:05.720Z,100.00
2023-03-21T22:14:42.012Z,100.00
2023-03-21T22:17:14.485Z,100.00
2023-03-21T22:19:43.481Z,100.00
2023-03-21T22:22:18.048Z,100.00
2023-03-21T22:24:47.985Z,100.00
2023-03-21T22:27:18.593Z,100.00
2023-03-21T22:29:48.939Z,100.00
2023-03-21T22:32:16.331Z,100.00
2023-03-21T22:34:43.509Z,100.00
2023-03-21T22:37:11.251Z,100.00
2023-03-21T22:39:43.145Z,100.00
2023-03-21T22:42:12.959Z,100.00
2023-03-21T22:44:40.405Z,100.00
2023-03-21T22:47:10.373Z,100.00
2023-03-21T22:49:40.094Z,100.00
2023-03-21T22:52:07.291Z,100.00
2023-03-21T22:54:35.450Z,100.00
2023-03-21T22:57:06.176Z,100.00
2023-03-21T22:59:33.298Z,100.00
2023-03-21T23:02:03.614Z,100.00
2023-03-21T23:04:34.483Z,100.00
2023-03-21T23:07:07.780Z,100.00
2023-03-21T23:09:34.935Z,100.00
2023-03-21T23:12:02.040Z,100.00
2023-03-21T23:14:32.576Z,100.00
2023-03-21T23:17:02.868Z,100.00
2023-03-21T23:19:30.557Z,100.00
2023-03-21T23:22:00.378Z,100.00
2023-03-21T23:24:28.114Z,100.00
2023-03-21T23:26:57.955Z,100.00
2023-03-21T23:29:30.503Z,100.00
2023-03-21T23:32:09.362Z,100.00
2023-03-21T23:34:36.627Z,100.00
2023-03-21T23:37:07.232Z,100.00
2023-03-21T23:39:39.272Z,100.00
2023-03-21T23:42:06.357Z,100.00
2023-03-21T23:44:33.546Z,100.00
2023-03-21T23:47:01.120Z,100.00
2023-03-21T23:49:31.095Z,100.00
2023-03-21T23:52:01.322Z,100.00
2023-03-21T23:54:31.788Z,100.00
2023-03-21T23:56:59.020Z,100.00
2023-03-21T23:59:26.256Z,100.00
